Time;durP1;ratioP1;P1;durP2;ratioP2;P2;SDS_P1;SDS_P2;PMS_P1;PMS_P2;Temp;Humidity;BMP_temperature;BMP_pressure;BME280_temperature;BME280_humidity;BME280_pressure;Samples;Min_cycle;Max_cycle;Signal;HPM_P1;HPM_P2
2022/06/14 03:56:06;;;;;;;6.25;3.25;;;;;;;18.45;60.06;100862.31;5605818;31;82371;-56
2022/06/14 03:59:33;;;;;;;4.53;3.00;;;;;;;18.45;60.06;100862.31;5584160;31;33406;-56
2022/06/14 04:03:06;;;;;;;6.93;3.17;;;;;;;17.84;61.37;100867.72;5584434;31;33930;-56
2022/06/14 04:06:27;;;;;;;5.72;2.92;;;;;;;17.95;61.71;100872.88;5583683;32;33544;-56
2022/06/14 04:09:58;;;;;;;6.05;3.10;;;;;;;17.88;62.01;100891.50;5583936;32;33630;-56
2022/06/14 04:13:39;;;;;;;5.93;3.28;;;;;;;17.81;63.01;100878.41;5575889;32;33599;-56
2022/06/14 04:16:51;;;;;;;5.07;3.00;;;;;;;18.04;62.59;100888.00;5581079;31;33476;-56
2022/06/14 04:20:10;;;;;;;6.37;3.22;;;;;;;18.09;64.11;100889.78;5583845;32;34221;-56
2022/06/14 04:23:22;;;;;;;8.10;3.42;;;;;;;18.18;62.61;100897.91;5582436;31;33641;-56
2022/06/14 04:26:52;;;;;;;7.78;3.58;;;;;;;18.08;62.66;100899.06;5583627;32;34181;-56
2022/06/14 04:30:10;;;;;;;8.18;3.17;;;;;;;18.25;62.95;100904.50;5564084;32;34218;-56
2022/06/14 04:33:17;;;;;;;6.47;3.05;;;;;;;18.44;65.34;100901.47;5563768;32;33611;-56
2022/06/14 04:36:27;;;;;;;8.27;3.30;;;;;;;18.57;63.15;100907.81;5563924;32;34178;-56
2022/06/14 04:39:39;;;;;;;8.82;3.10;;;;;;;18.59;60.63;100907.50;5563926;32;34315;-56
2022/06/14 04:43:19;;;;;;;5.30;2.70;;;;;;;18.55;59.38;100915.50;5564077;32;33723;-56
2022/06/14 04:46:24;;;;;;;5.65;2.80;;;;;;;18.65;59.71;100914.38;5502934;32;33550;-56
2022/06/14 04:49:36;;;;;;;9.00;3.67;;;;;;;18.67;58.76;100915.63;5503173;32;34199;-56
2022/06/14 04:52:48;;;;;;;7.45;2.72;;;;;;;18.82;59.81;100919.00;5563827;32;33575;-56
2022/06/14 04:56:02;;;;;;;5.95;2.78;;;;;;;18.88;58.87;100917.72;5560822;32;33685;-56
2022/06/14 04:59:13;;;;;;;4.65;2.70;;;;;;;19.00;62.74;100926.00;5563898;32;34313;-56
2022/06/14 05:02:26;;;;;;;7.05;3.08;;;;;;;19.08;58.67;100930.62;5563460;32;34471;-56
2022/06/14 05:05:36;;;;;;;4.87;2.95;;;;;;;19.12;56.36;100930.78;5574854;32;34359;-56
2022/06/14 05:08:52;;;;;;;6.10;2.95;;;;;;;19.23;58.50;100929.28;5570261;32;33760;-56
2022/06/14 05:12:01;;;;;;;;;;;;;;;19.42;57.23;100926.97;5569887;32;33706;-56
2022/06/14 05:15:29;;;;;;;5.18;2.85;;;;;;;19.58;65.48;100929.16;5570265;32;34082;-56
2022/06/14 05:18:39;;;;;;;9.07;3.10;;;;;;;19.86;63.13;100941.19;5569237;32;34349;-56
2022/06/14 05:22:08;;;;;;;8.07;3.12;;;;;;;20.07;55.49;100943.94;5555064;32;33177;-56
2022/06/14 05:25:13;;;;;;;5.30;3.10;;;;;;;20.30;60.28;100935.47;5526782;32;33567;-56
2022/06/14 05:28:26;;;;;;;3.87;2.72;;;;;;;20.40;56.36;100944.03;5549986;32;33767;-56
2022/06/14 05:32:28;;;;;;;7.32;2.80;;;;;;;20.52;53.13;100951.47;5550067;32;33713;-56
2022/06/14 05:35:53;;;;;;;5.22;3.12;;;;;;;20.79;55.63;100954.75;5500872;32;33777;-57
2022/06/14 05:39:35;;;;;;;4.97;2.75;;;;;;;21.20;56.61;100951.16;5549919;32;33729;-56
2022/06/14 05:42:44;;;;;;;10.65;3.22;;;;;;;21.27;56.35;100953.31;5535965;32;34343;-56
2022/06/14 05:45:51;;;;;;;9.00;2.75;;;;;;;21.41;56.41;100953.81;5549984;32;33659;-56
2022/06/14 05:49:00;;;;;;;4.70;2.60;;;;;;;21.28;48.85;100954.91;5549764;32;34277;-55
2022/06/14 05:52:13;;;;;;;6.12;2.67;;;;;;;21.01;46.45;100953.59;5549677;32;33584;-55
2022/06/14 05:55:28;;;;;;;6.82;2.40;;;;;;;21.04;46.40;100959.16;5548017;32;34311;-56
2022/06/14 05:59:06;;;;;;;6.28;2.90;;;;;;;21.04;46.87;100951.00;5549692;32;33280;-56
2022/06/14 06:02:21;;;;;;;13.07;3.37;;;;;;;21.24;46.49;100948.53;5509085;32;34298;-55
2022/06/14 06:05:27;;;;;;;4.85;2.83;;;;;;;21.46;46.65;100961.78;5549479;32;33620;-55
2022/06/14 06:08:50;;;;;;;4.78;2.37;;;;;;;21.54;45.42;100962.81;5549272;32;34274;-56
2022/06/14 06:12:07;;;;;;;6.80;2.75;;;;;;;21.61;47.51;100965.75;5549373;32;33749;-56
2022/06/14 06:15:20;;;;;;;4.10;2.20;;;;;;;21.65;46.90;100966.66;5549457;32;33689;-55
2022/06/14 06:18:29;;;;;;;4.40;2.33;;;;;;;21.60;41.72;100966.91;5549003;32;34388;-56
2022/06/14 06:21:49;;;;;;;7.70;2.17;;;;;;;21.77;43.39;100982.25;5550023;32;33190;-56
2022/06/14 06:25:09;;;;;;;5.75;2.28;;;;;;;21.63;45.12;100970.91;5555627;32;34341;-55
2022/06/14 06:28:17;;;;;;;8.57;2.60;;;;;;;21.88;49.68;100979.84;5555557;32;33723;-56
2022/06/14 06:31:24;;;;;;;4.47;2.42;;;;;;;21.93;45.30;100985.09;5566759;32;33606;-56
2022/06/14 06:34:27;;;;;;;6.70;2.62;;;;;;;21.91;41.06;100981.91;5568453;32;33614;-56
2022/06/14 06:37:37;;;;;;;8.77;2.70;;;;;;;21.85;42.68;100981.34;5568595;32;33684;-56
2022/06/14 06:41:49;;;;;;;8.27;2.53;;;;;;;21.90;40.83;100972.13;5568891;32;34186;-55
2022/06/14 06:44:11;;;;;;;7.03;2.33;;;;;;;21.89;41.79;100979.53;5568674;32;33948;-56
2022/06/14 06:47:37;;;;;;;7.30;2.67;;;;;;;22.05;41.67;100982.34;5568153;32;33744;-56
2022/06/14 06:50:46;;;;;;;6.43;2.40;;;;;;;22.12;45.19;100982.59;5567761;32;33602;-56
2022/06/14 06:53:57;;;;;;;4.93;2.45;;;;;;;22.27;40.74;100992.03;5567997;32;34382;-56
2022/06/14 06:57:01;;;;;;;5.53;2.53;;;;;;;22.59;48.14;100981.25;5560102;32;33684;-56
2022/06/14 07:00:05;;;;;;;4.68;2.60;;;;;;;22.67;48.96;100983.81;5548356;32;34377;-56
2022/06/14 07:03:47;;;;;;;8.00;2.25;;;;;;;22.75;40.64;100982.09;5549149;32;33719;-56
2022/06/14 07:06:58;;;;;;;5.68;2.28;;;;;;;22.46;37.80;100978.53;5548412;32;33529;-56
2022/06/14 07:10:06;;;;;;;9.50;2.42;;;;;;;22.33;36.67;100981.66;5549235;32;34124;-56
2022/06/14 07:13:20;;;;;;;7.50;2.92;;;;;;;22.50;38.89;100982.16;5548866;32;33718;-55
2022/06/14 07:16:34;;;;;;;5.90;2.50;;;;;;;22.51;36.68;100977.50;5548971;32;33382;-56
2022/06/14 07:19:42;;;;;;;9.90;2.80;;;;;;;22.80;44.78;100979.09;5549092;32;33236;-56
2022/06/14 07:22:50;;;;;;;20.02;2.53;;;;;;;22.80;40.97;100986.50;5548668;32;33775;-56
2022/06/14 07:26:19;;;;;;;10.00;2.65;;;;;;;22.79;42.53;100982.19;5557850;32;34180;-56
2022/06/14 07:29:36;;;;;;;13.57;2.92;;;;;;;22.79;43.04;100991.19;5561837;32;34239;-56
2022/06/14 07:32:46;;;;;;;7.45;2.65;;;;;;;22.96;44.01;100984.66;5568688;32;33811;-56
2022/06/14 07:35:57;;;;;;;13.75;3.75;;;;;;;23.10;43.94;100984.22;5568056;32;33599;-56
2022/06/14 07:39:27;;;;;;;9.23;2.70;;;;;;;23.12;43.28;100984.69;5568331;32;34077;-56
2022/06/14 07:42:38;;;;;;;6.62;2.42;;;;;;;23.20;37.72;100991.91;5568365;32;34299;-56
2022/06/14 07:45:43;;;;;;;7.60;2.80;;;;;;;22.90;35.17;100984.06;5568057;32;34308;-56
2022/06/14 07:48:56;;;;;;;8.13;2.70;;;;;;;22.85;34.94;100984.34;5568420;32;33557;-56
2022/06/14 07:52:42;;;;;;;18.00;2.33;;;;;;;22.87;32.16;100990.22;5568252;32;33116;-56
2022/06/14 07:55:57;;;;;;;24.87;3.47;;;;;;;23.00;38.07;100982.00;5567231;32;33698;-56
2022/06/14 07:59:05;;;;;;;3.87;2.37;;;;;;;22.85;31.90;100998.00;5555297;32;34236;-56
2022/06/14 08:02:39;;;;;;;9.63;2.50;;;;;;;22.65;32.96;100985.31;5551886;32;34299;-56
2022/06/14 08:05:46;;;;;;;5.25;2.22;;;;;;;22.44;33.57;100983.56;5565870;32;34188;-55
2022/06/14 08:08:53;;;;;;;;;;;;;;;22.57;31.89;100991.72;5566601;32;33610;-55
2022/06/14 08:11:59;;;;;;;8.80;2.58;;;;;;;22.47;33.74;100982.06;5566363;32;34553;-55
2022/06/14 08:15:14;;;;;;;5.95;2.10;;;;;;;22.55;32.95;100991.25;5567728;32;33579;-56
2022/06/14 08:18:21;;;;;;;5.65;2.12;;;;;;;22.63;36.28;100993.06;5567255;32;33759;-56
2022/06/14 08:21:37;;;;;;;4.03;2.00;;;;;;;22.63;31.27;100996.59;5561634;32;33705;-56
2022/06/14 08:24:45;;;;;;;7.03;2.00;;;;;;;22.46;31.67;100992.22;5565251;32;34306;-55
2022/06/14 08:27:58;;;;;;;5.55;2.50;;;;;;;22.59;32.79;101001.16;5567348;32;34277;-56
2022/06/14 08:31:08;;;;;;;7.50;2.50;;;;;;;22.77;33.39;100998.94;5558262;32;33978;-56
2022/06/14 08:34:17;;;;;;;23.60;2.80;;;;;;;22.86;35.66;100993.31;5562253;32;33639;-56
2022/06/14 08:37:50;;;;;;;8.48;2.78;;;;;;;22.67;41.22;100994.75;5564211;32;33601;-56
2022/06/14 08:41:03;;;;;;;9.95;2.20;;;;;;;22.83;36.89;100989.34;5565697;32;33591;-56
2022/06/14 08:44:14;;;;;;;4.57;2.20;;;;;;;22.80;34.99;100995.50;5563103;32;32500;-56
2022/06/14 08:47:38;;;;;;;9.82;2.40;;;;;;;22.85;33.19;100997.22;5562129;32;33672;-55
2022/06/14 08:50:59;;;;;;;7.12;2.25;;;;;;;22.68;35.17;100998.28;5567843;32;33702;-56
2022/06/14 08:54:15;;;;;;;9.38;2.10;;;;;;;22.60;34.60;100994.56;5567300;32;34239;-55
2022/06/14 08:58:00;;;;;;;6.18;2.20;;;;;;;22.80;34.85;100989.25;5563845;32;33662;-56
2022/06/14 09:01:18;;;;;;;10.18;2.33;;;;;;;22.93;34.63;100994.34;5560858;32;33480;-57
2022/06/14 09:04:57;;;;;;;4.90;2.00;;;;;;;22.91;33.69;100999.34;5567591;32;34185;-55
2022/06/14 09:08:25;;;;;;;3.78;1.70;;;;;;;22.88;30.00;101002.78;5569040;32;33592;-55
2022/06/14 09:11:55;;;;;;;9.60;2.10;;;;;;;22.59;31.09;101001.16;5563147;32;33691;-55
2022/06/14 09:15:25;;;;;;;7.12;2.40;;;;;;;22.65;32.74;100988.84;5564019;32;33717;-56
2022/06/14 09:18:55;;;;;;;8.60;1.83;;;;;;;22.78;34.18;100997.00;5560693;32;33627;-56
2022/06/14 09:22:08;;;;;;;7.45;1.80;;;;;;;22.82;30.46;101001.44;5567509;32;33175;-56
2022/06/14 09:25:39;;;;;;;11.15;2.45;;;;;;;22.73;30.89;100998.03;5565962;32;33461;-56
2022/06/14 09:29:11;;;;;;;10.90;2.28;;;;;;;22.88;32.85;100982.81;5554134;32;34864;-56
2022/06/14 09:36:51;;;;;;;6.65;2.10;;;;;;;22.70;30.59;100987.81;5555169;32;32027;-56
2022/06/14 09:40:02;;;;;;;6.72;2.00;;;;;;;22.73;31.36;100976.97;5568491;32;33765;-56
2022/06/14 09:43:42;;;;;;;4.95;2.03;;;;;;;22.82;31.18;100982.28;5566941;32;33728;-55
2022/06/14 09:47:14;;;;;;;8.82;2.65;;;;;;;22.93;33.63;100982.59;5563336;32;33636;-56
2022/06/14 09:50:21;;;;;;;5.65;2.12;;;;;;;22.80;32.89;100981.84;5565347;32;34153;-56
2022/06/14 09:53:57;;;;;;;5.35;2.40;;;;;;;22.50;31.45;100993.09;5568556;32;33784;-56
2022/06/14 09:57:20;;;;;;;3.50;1.92;;;;;;;22.46;32.06;100988.69;5569350;32;33763;-56
2022/06/14 10:00:36;;;;;;;4.30;1.90;;;;;;;22.71;33.77;100973.00;5567944;32;33707;-56
2022/06/14 10:04:24;;;;;;;5.82;2.33;;;;;;;22.92;35.81;100970.84;5566771;32;32491;-56
2022/06/14 10:07:34;;;;;;;7.82;2.17;;;;;;;23.07;31.19;100979.47;5565484;32;33693;-56
2022/06/14 10:10:49;;;;;;;9.05;2.47;;;;;;;23.00;32.68;100965.59;5567488;32;33477;-56
2022/06/14 10:14:10;;;;;;;4.72;2.47;;;;;;;22.90;32.03;100973.13;5561494;32;33372;-56
2022/06/14 10:17:29;;;;;;;3.33;2.05;;;;;;;22.75;31.67;100979.37;5567323;32;33606;-56
2022/06/14 10:20:40;;;;;;;6.78;2.42;;;;;;;22.87;33.93;100981.25;5568965;32;33793;-55
2022/06/14 10:24:05;;;;;;;11.85;2.95;;;;;;;22.93;33.90;100966.22;5566160;32;33677;-56
2022/06/14 10:31:28;;;;;;;3.65;2.20;;;;;;;22.41;33.69;100984.25;5561335;32;34592;-56
2022/06/14 10:34:44;;;;;;;4.93;2.72;;;;;;;22.65;35.01;100968.91;5565325;32;33721;-56
2022/06/14 10:38:25;;;;;;;4.45;2.55;;;;;;;22.83;33.23;100955.75;5567899;32;34070;-55
2022/06/14 10:41:31;;;;;;;7.65;2.17;;;;;;;22.88;33.68;100956.31;5566535;32;33630;-56
2022/06/14 10:45:11;;;;;;;6.22;2.60;;;;;;;22.79;34.86;100954.88;5562910;32;34619;-56
2022/06/14 10:48:36;;;;;;;5.85;2.40;;;;;;;22.62;33.68;100951.28;5561795;32;33893;-56
2022/06/14 10:52:04;;;;;;;8.27;2.72;;;;;;;22.72;32.55;100952.72;5560252;32;34962;-56
2022/06/14 10:55:33;;;;;;;4.93;2.10;;;;;;;22.95;34.01;100940.12;5567078;32;33989;-56
2022/06/14 10:59:06;;;;;;;9.35;2.55;;;;;;;23.29;32.44;100940.59;5562804;32;32958;-56
2022/06/14 11:02:35;;;;;;;3.85;2.03;;;;;;;23.27;32.08;100937.38;5567194;32;34255;-56
2022/06/14 11:05:47;;;;;;;4.37;2.33;;;;;;;23.36;34.87;100931.75;5567425;32;33648;-56
2022/06/14 11:09:09;;;;;;;5.93;2.20;;;;;;;23.57;36.99;100934.22;5566831;32;33695;-56
2022/06/14 11:12:25;;;;;;;6.62;2.20;;;;;;;23.49;32.65;100933.25;5567220;32;33646;-56
2022/06/14 11:15:45;;;;;;;5.87;2.53;;;;;;;23.18;32.16;100931.31;5560455;32;33906;-56
2022/06/14 11:19:00;;;;;;;5.22;2.37;;;;;;;23.06;33.47;100934.12;5565051;32;33687;-56
2022/06/14 11:22:14;;;;;;;4.37;2.28;;;;;;;22.92;31.89;100923.59;5565027;32;33729;-56
2022/06/14 11:25:46;;;;;;;5.55;2.30;;;;;;;23.14;31.62;100922.22;5559775;32;33861;-55
2022/06/14 11:28:54;;;;;;;5.40;2.25;;;;;;;23.20;31.49;100937.22;5562392;32;34405;-56
2022/06/14 11:32:13;;;;;;;7.07;2.12;;;;;;;23.29;32.50;100932.37;5560516;32;34364;-56
2022/06/14 11:35:52;;;;;;;4.78;2.42;;;;;;;23.40;35.94;100932.63;5567023;32;34394;-55
2022/06/14 11:39:14;;;;;;;5.30;2.25;;;;;;;23.23;33.79;100931.03;5568198;32;33678;-56
2022/06/14 11:42:27;;;;;;;5.15;2.37;;;;;;;23.15;32.14;100938.28;5558521;32;33675;-56
2022/06/14 11:45:29;;;;;;;3.17;1.80;;;;;;;23.22;32.35;100934.94;5560525;32;33719;-56
2022/06/14 11:48:43;;;;;;;4.55;2.45;;;;;;;23.32;32.35;100936.34;5566387;32;33822;-55
2022/06/14 11:52:31;;;;;;;8.52;2.45;;;;;;;23.33;32.74;100925.03;5562658;32;33742;-56
2022/06/14 11:55:47;;;;;;;7.72;2.37;;;;;;;23.37;33.69;100925.91;5564581;32;34542;-56
2022/06/14 11:59:13;;;;;;;7.85;2.60;;;;;;;23.42;33.70;100938.56;5558079;32;34447;-56
2022/06/14 12:02:37;;;;;;;6.28;2.40;;;;;;;23.43;34.57;100932.72;5562034;32;34705;-56
2022/06/14 12:06:08;;;;;;;6.20;2.70;;;;;;;23.52;34.40;100932.53;5563706;32;33005;-56
2022/06/14 12:09:49;;;;;;;5.90;2.40;;;;;;;23.72;33.44;100927.97;5567265;32;33635;-56
2022/06/14 12:13:25;;;;;;;2.67;2.05;;;;;;;23.84;33.01;100932.50;5539650;32;34316;-55
2022/06/14 12:16:42;;;;;;;4.55;2.40;;;;;;;23.96;35.09;100926.13;5562299;32;33777;-57
2022/06/14 12:19:53;;;;;;;5.32;2.40;;;;;;;23.99;32.77;100918.00;5559238;32;33670;-56
2022/06/14 12:23:08;;;;;;;4.82;2.30;;;;;;;23.72;34.27;100932.66;5568667;32;34325;-56
2022/06/14 12:26:34;;;;;;;6.50;2.12;;;;;;;23.29;37.04;100931.59;5566904;32;33742;-56
2022/06/14 12:29:51;;;;;;;4.43;2.05;;;;;;;23.11;35.29;100929.19;5563589;32;34483;-56
2022/06/14 12:33:08;;;;;;;7.47;2.25;;;;;;;23.14;39.13;100938.63;5566516;32;34320;-56
2022/06/14 12:36:16;;;;;;;6.05;2.80;;;;;;;22.98;35.09;100941.34;5566331;32;33803;-56
2022/06/14 12:39:26;;;;;;;4.15;2.30;;;;;;;22.95;36.20;100939.31;5560652;32;34398;-56
2022/06/14 12:42:39;;;;;;;6.40;2.55;;;;;;;22.97;36.99;100937.81;5561000;32;33874;-56
2022/06/14 12:45:59;;;;;;;4.70;2.20;;;;;;;22.83;36.47;100931.16;5566548;32;34396;-55
2022/06/14 12:49:18;;;;;;;17.58;3.50;;;;;;;22.88;38.20;100942.63;5566760;32;34150;-56
2022/06/14 12:52:35;;;;;;;6.18;2.60;;;;;;;23.08;37.79;100923.62;5568726;32;33660;-55
2022/06/14 12:55:46;;;;;;;6.05;2.35;;;;;;;23.23;37.32;100935.72;5568907;32;33678;-56
2022/06/14 12:59:07;;;;;;;4.95;2.53;;;;;;;23.08;37.34;100934.56;5568178;32;33680;-55
2022/06/14 13:02:17;;;;;;;6.05;2.42;;;;;;;22.91;36.12;100935.66;5569264;32;32062;-56
2022/06/14 13:05:30;;;;;;;8.82;2.28;;;;;;;22.88;36.54;100934.44;5568566;32;33767;-55
2022/06/14 13:09:00;;;;;;;7.15;2.70;;;;;;;22.92;34.85;100913.44;5567823;32;33396;-56
2022/06/14 13:12:41;;;;;;;7.47;2.15;;;;;;;23.05;34.18;100916.13;5562553;32;34316;-56
2022/06/14 13:15:54;;;;;;;5.72;2.60;;;;;;;23.16;33.57;100909.00;5538952;32;33810;-56
2022/06/14 13:19:08;;;;;;;6.87;2.75;;;;;;;23.27;36.00;100904.56;5567512;32;34450;-55
2022/06/14 13:22:38;;;;;;;3.95;2.10;;;;;;;23.32;35.93;100907.06;5567733;32;33792;-56
2022/06/14 13:26:05;;;;;;;5.20;2.50;;;;;;;23.26;36.27;100911.19;5563716;32;33691;-56
2022/06/14 13:29:32;;;;;;;6.25;2.22;;;;;;;23.10;36.60;100892.03;5569499;32;33810;-54
2022/06/14 13:32:50;;;;;;;6.90;2.70;;;;;;;23.12;36.68;100900.69;5561785;32;33652;-53
2022/06/14 13:36:04;;;;;;;5.80;3.10;;;;;;;23.06;36.69;100896.62;5569623;32;33789;-56
2022/06/14 13:39:28;;;;;;;11.73;3.05;;;;;;;22.98;36.49;100906.59;5565844;32;33439;-54
2022/06/14 13:43:00;;;;;;;7.18;2.60;;;;;;;23.12;36.50;100897.19;5567366;32;34334;-53
2022/06/14 13:46:34;;;;;;;7.50;2.35;;;;;;;23.17;35.88;100894.16;5562326;32;33760;-56
2022/06/14 13:49:42;;;;;;;15.73;3.03;;;;;;;22.94;35.96;100885.78;5563849;32;33764;-56
2022/06/14 13:52:53;;;;;;;11.02;3.00;;;;;;;23.01;37.02;100891.41;5563822;32;33407;-56
2022/06/14 13:56:22;;;;;;;12.43;2.95;;;;;;;23.10;35.63;100885.78;5568907;32;33641;-57
2022/06/14 13:59:33;;;;;;;6.50;2.45;;;;;;;23.32;36.77;100871.50;5563896;32;33798;-53
2022/06/14 14:02:46;;;;;;;27.37;3.37;;;;;;;23.34;34.13;100871.13;5564754;32;33999;-53
2022/06/14 14:05:55;;;;;;;6.75;2.50;;;;;;;23.24;34.23;100877.91;5568497;32;33745;-53
2022/06/14 14:09:18;;;;;;;5.45;2.58;;;;;;;22.97;34.94;100874.13;5567595;32;33817;-54
2022/06/14 14:12:24;;;;;;;6.93;2.87;;;;;;;23.17;35.84;100864.88;5565934;32;33626;-53
2022/06/14 14:15:29;;;;;;;;;;;;;;;23.29;36.61;100877.66;5565109;32;34103;-55
2022/06/14 14:19:09;;;;;;;10.75;2.83;;;;;;;23.21;37.02;100867.69;5567521;32;34057;-53
2022/06/14 14:22:26;;;;;;;7.87;2.35;;;;;;;23.23;36.23;100865.41;5568652;32;34253;-53
2022/06/14 14:25:43;;;;;;;9.07;2.45;;;;;;;23.25;35.99;100862.31;5567630;32;33641;-54
2022/06/14 14:28:52;;;;;;;7.85;2.62;;;;;;;23.32;35.38;100854.28;5566618;32;33743;-53
2022/06/14 14:32:05;;;;;;;4.72;2.00;;;;;;;23.35;34.62;100857.09;5568723;32;34377;-53
2022/06/14 14:35:21;;;;;;;5.53;1.98;;;;;;;23.24;32.09;100856.03;5569548;32;33643;-54
2022/06/14 14:38:31;;;;;;;7.32;2.45;;;;;;;23.30;34.19;100849.16;5565185;32;33888;-54
2022/06/14 14:41:45;;;;;;;4.03;2.22;;;;;;;23.40;33.81;100845.09;5569015;32;33410;-53
2022/06/14 14:45:01;;;;;;;3.22;2.00;;;;;;;23.52;34.47;100850.44;5568984;32;34351;-53
2022/06/14 14:48:16;;;;;;;3.90;2.22;;;;;;;23.50;34.03;100857.41;5568604;32;33824;-54
2022/06/14 14:51:36;;;;;;;5.57;2.15;;;;;;;23.28;33.38;100856.94;5565332;32;33789;-54
2022/06/14 14:54:53;;;;;;;5.18;2.15;;;;;;;23.29;34.43;100849.53;5565795;32;34399;-54
2022/06/14 14:58:04;;;;;;;3.85;2.10;;;;;;;23.31;33.23;100847.22;5560388;32;34383;-53
2022/06/14 15:08:46;;;;;;;4.75;2.33;;;;;;;23.27;35.27;100844.38;5567644;32;34080;-54
2022/06/14 15:11:53;;;;;;;;;;;;;;;23.38;35.23;100850.13;5556184;31;33679;-54
